Accueil
METAR-TAF:

METAR-TAF

Aéroports :

Aéroport de Pau-Pyrénées

Pau, France

latitude: 43-23N, longitude: 000-25W, altitude: 188 m

Observation

Le bulletin a été fait il y a 30 minutes, à 07:30 UTC
Vent 2 kt de sud/sud-est
Température 5°C
Humidité 93%
Pression 1038 hPa
Visibilité 10 km ou plus
Ciel couvert à une hauteur de 3700 ft

METAR: LFBP 050730Z AUTO 15002KT 9999 OVC037 05/04 Q1038 NOSIG

Heure: 09:00 (08:00 UTC)

Prévision

Le bulletin a été fait il y a 3 heures et 0 minutes, à 05:00 UTC
Prévision valable du 05 à 06 UTC au 06 à 06 UTC
Vent 3 kt de direction variable
Visibilité: 8000 m
Nuages fragmentés à une hauteur de 2500 ft
Evoluant progressivement
du 06 à 00 UTC au 06 à 03 UTC
Visibilité: 3000 m
Ciel couvert à une hauteur de 500 ft
brume

TAF: LFBP 050500Z 0506/0606 VRB03KT 8000 BKN025 BECMG 0600/0603 3000 BR OVC005

Observations et prévisions météorologiques de plus de 4000 aéroports (messages METAR et TAF).

Les stations disponibles sont représentées par des disques jaunes et rouges sur la carte.

Passer la souris dessus pour voir le nom de la station.

Cliquer dessus pour voir les observations et prévisions météorologiques.

Pour changer de carte: cliquez sur les boutons verts avec une croix noire pour zoomer, sur le bouton vert avec un tiret pour effectuer un zoom arrière, ou sur les flèches vertes pour les cartes adjacentes.


METAR-TAF: